Time;durP1;ratioP1;P1;durP2;ratioP2;P2;SDS_P1;SDS_P2;PMS_P1;PMS_P2;Temp;Humidity;BMP_temperature;BMP_pressure;BME280_temperature;BME280_humidity;BME280_pressure;Samples;Min_cycle;Max_cycle;Signal;HPM_P1;HPM_P2
2023/10/11 00:01:58;;;;;;;5.30;3.40;;;;;;;17.97;69.00;100603.13;5084767;28;20653;-82
2023/10/11 00:04:23;;;;;;;7.10;3.33;;;;;;;17.95;68.70;100599.72;5077459;28;20251;-82
2023/10/11 00:06:50;;;;;;;5.73;3.67;;;;;;;17.95;68.21;100607.81;5089375;28;20662;-82
2023/10/11 00:09:17;;;;;;;5.97;3.20;;;;;;;17.93;68.04;100599.88;5085056;28;20220;-82
2023/10/11 00:11:45;;;;;;;6.57;3.47;;;;;;;17.93;67.95;100607.97;5089678;28;20297;-82
2023/10/11 00:14:13;;;;;;;6.87;3.90;;;;;;;17.94;67.79;100606.13;5089981;28;20202;-82
2023/10/11 00:16:40;;;;;;;7.60;3.70;;;;;;;17.89;68.23;100603.88;5086972;28;20247;-82
2023/10/11 00:19:09;;;;;;;7.03;4.23;;;;;;;17.88;68.44;100596.78;5092341;28;20294;-82
2023/10/11 00:21:40;;;;;;;7.20;3.90;;;;;;;17.87;68.69;100607.72;5085298;28;20230;-82
2023/10/11 00:24:07;;;;;;;6.60;3.57;;;;;;;17.84;69.12;100600.75;5074523;28;20203;-82
2023/10/11 00:26:37;;;;;;;6.30;3.60;;;;;;;17.80;69.15;100591.25;5092538;28;20615;-82
2023/10/11 00:29:09;;;;;;;8.77;3.50;;;;;;;17.77;69.59;100585.31;5087186;28;20258;-82
2023/10/11 00:31:35;;;;;;;8.40;3.77;;;;;;;17.77;69.56;100578.09;5086805;28;20201;-82
2023/10/11 00:34:04;;;;;;;7.17;4.70;;;;;;;17.72;69.73;100579.53;5091120;28;20205;-82
2023/10/11 00:36:31;;;;;;;7.10;3.80;;;;;;;17.69;69.90;100575.28;5092783;28;20274;-81
2023/10/11 00:38:58;;;;;;;7.47;3.70;;;;;;;17.63;70.38;100573.13;5083586;28;20648;-82
2023/10/11 00:41:30;;;;;;;5.63;3.30;;;;;;;17.59;70.80;100567.16;5090054;28;20226;-82
2023/10/11 00:43:57;;;;;;;7.33;3.93;;;;;;;17.54;71.34;100565.91;5082312;28;20227;-83
2023/10/11 00:46:35;;;;;;;6.83;4.40;;;;;;;17.49;72.19;100569.03;5092517;28;20210;-83
2023/10/11 00:49:08;;;;;;;10.07;4.90;;;;;;;17.42;72.78;100565.22;5083506;28;20661;-83
2023/10/11 00:51:36;;;;;;;9.77;3.97;;;;;;;17.37;73.27;100572.03;5085928;28;20205;-83
2023/10/11 00:54:04;;;;;;;8.33;4.17;;;;;;;17.30;74.01;100561.81;5085538;28;20221;-82
2023/10/11 00:56:32;;;;;;;8.80;4.20;;;;;;;17.22;74.20;100556.28;5079825;28;20232;-82
2023/10/11 00:58:59;;;;;;;8.87;4.60;;;;;;;17.19;74.56;100551.22;5091228;28;20226;-82
2023/10/11 01:01:28;;;;;;;6.90;5.00;;;;;;;17.14;74.94;100556.16;5083350;28;20225;-82
2023/10/11 01:03:55;;;;;;;8.30;4.60;;;;;;;17.09;75.06;100550.34;5078583;28;20686;-82
2023/10/11 01:06:25;;;;;;;8.67;3.63;;;;;;;17.04;75.42;100543.69;5076313;28;20205;-81
2023/10/11 01:08:52;;;;;;;7.60;4.30;;;;;;;16.99;75.57;100539.59;5094960;28;20224;-82
2023/10/11 01:11:18;;;;;;;6.17;4.07;;;;;;;16.97;75.46;100546.09;5091654;28;20565;-82
2023/10/11 01:13:50;;;;;;;8.53;4.97;;;;;;;16.90;75.94;100540.41;5091347;28;20205;-83
2023/10/11 01:16:18;;;;;;;7.57;4.47;;;;;;;16.86;75.96;100535.44;5086151;28;20672;-82
2023/10/11 01:18:46;;;;;;;7.57;3.93;;;;;;;16.83;75.76;100541.13;5094526;28;20223;-83
2023/10/11 01:21:14;;;;;;;8.27;4.67;;;;;;;16.80;75.66;100538.72;5085530;28;20220;-83
2023/10/11 01:23:40;;;;;;;7.43;4.17;;;;;;;16.78;75.58;100535.31;5088458;28;20734;-83
2023/10/11 01:26:08;;;;;;;6.00;4.03;;;;;;;16.75;75.46;100536.44;5080744;28;20205;-83
2023/10/11 01:28:35;;;;;;;9.00;4.83;;;;;;;16.72;75.49;100531.34;5080425;28;20312;-82
2023/10/11 01:31:08;;;;;;;10.37;4.90;;;;;;;16.75;74.78;100530.22;5092692;28;20839;-83
2023/10/11 01:33:36;;;;;;;7.70;4.50;;;;;;;16.75;74.86;100535.59;5085243;28;20233;-82
2023/10/11 01:36:05;;;;;;;6.93;3.90;;;;;;;16.72;74.49;100525.97;5086267;28;20569;-82
2023/10/11 01:38:36;;;;;;;6.67;3.63;;;;;;;16.75;72.93;100530.22;5078078;28;20244;-82
2023/10/11 01:41:06;;;;;;;5.43;3.27;;;;;;;16.75;72.08;100535.59;5089500;28;20194;-83
2023/10/11 01:43:32;;;;;;;5.80;3.50;;;;;;;16.75;71.61;100525.69;5083619;28;20208;-83
2023/10/11 01:45:59;;;;;;;6.57;3.37;;;;;;;16.77;71.01;100522.88;5083677;28;20205;-82
2023/10/11 01:48:25;;;;;;;4.33;2.87;;;;;;;16.80;69.49;100530.66;5090033;28;20235;-83
2023/10/11 01:50:51;;;;;;;6.97;4.53;;;;;;;16.86;68.26;100528.25;5088752;28;20205;-83
2023/10/11 01:53:18;;;;;;;5.60;3.10;;;;;;;16.97;68.14;100535.34;5085369;28;20214;-83
2023/10/11 01:55:45;;;;;;;4.77;3.33;;;;;;;17.09;67.15;100534.19;5088107;28;20209;-83
2023/10/11 01:58:13;;;;;;;7.63;3.20;;;;;;;17.16;66.73;100524.59;5087470;28;20546;-82
2023/10/11 02:00:39;;;;;;;5.10;3.50;;;;;;;17.19;66.22;100523.44;5077806;28;20206;-82
2023/10/11 02:03:12;;;;;;;6.00;3.37;;;;;;;17.25;65.93;100529.09;5078252;28;20633;-82
2023/10/11 02:05:39;;;;;;;6.77;3.73;;;;;;;17.28;65.70;100517.19;5084950;28;20216;-83
2023/10/11 02:08:06;;;;;;;5.40;3.47;;;;;;;17.36;65.03;100525.41;5091500;28;20222;-82
2023/10/11 02:10:36;;;;;;;7.63;3.50;;;;;;;17.38;65.19;100525.28;5093057;28;20213;-82
2023/10/11 02:13:06;;;;;;;6.63;2.73;;;;;;;17.41;65.12;100514.19;5086675;28;20212;-82
2023/10/11 02:15:34;;;;;;;6.77;2.73;;;;;;;17.43;64.82;100518.44;5091078;28;20209;-83
2023/10/11 02:18:07;;;;;;;6.30;3.33;;;;;;;17.43;65.05;100520.28;5085195;28;20226;-83
2023/10/11 02:20:33;;;;;;;7.07;3.50;;;;;;;17.42;64.71;100518.59;5092846;28;20225;-83
2023/10/11 02:23:00;;;;;;;5.17;3.17;;;;;;;17.42;65.17;100524.81;5081457;28;20231;-83
2023/10/11 02:25:27;;;;;;;5.43;3.30;;;;;;;17.41;65.35;100516.88;5089762;28;20211;-83
2023/10/11 02:27:56;;;;;;;5.70;3.00;;;;;;;17.37;65.36;100512.81;5092899;28;20713;-83
2023/10/11 02:30:24;;;;;;;6.83;3.70;;;;;;;17.35;64.82;100515.63;5090188;28;20199;-83
2023/10/11 02:32:52;;;;;;;5.73;2.80;;;;;;;17.37;64.56;100518.19;5093692;28;20302;-83
2023/10/11 02:35:19;;;;;;;5.63;3.30;;;;;;;17.38;64.41;100518.00;5094291;28;20198;-83
2023/10/11 02:37:46;;;;;;;6.23;3.13;;;;;;;17.40;64.17;100521.41;5085344;28;20228;-83
2023/10/11 02:40:16;;;;;;;5.30;3.30;;;;;;;17.43;64.16;100517.59;5090330;28;20296;-84
2023/10/11 02:42:44;;;;;;;5.37;3.50;;;;;;;17.44;64.58;100517.44;5092822;28;20235;-84
2023/10/11 02:45:13;;;;;;;7.33;3.70;;;;;;;17.49;63.15;100517.88;5084929;28;20204;-82
2023/10/11 02:47:40;;;;;;;6.07;3.13;;;;;;;17.51;62.64;100517.72;5095397;28;20655;-83
2023/10/11 02:50:08;;;;;;;7.93;3.37;;;;;;;17.53;63.22;100529.22;5081493;28;20209;-83
2023/10/11 02:52:36;;;;;;;5.10;3.20;;;;;;;17.52;63.15;100522.13;5078877;28;20286;-83
2023/10/11 02:55:15;;;;;;;4.53;3.40;;;;;;;17.54;63.57;100529.06;5095275;28;20703;-83
2023/10/11 02:57:42;;;;;;;8.53;4.13;;;;;;;17.57;63.85;100528.75;5085876;28;20235;-83
2023/10/11 03:00:21;;;;;;;6.70;3.30;;;;;;;17.56;63.41;100510.06;5095578;28;20207;-83
2023/10/11 03:02:54;;;;;;;5.50;3.60;;;;;;;17.55;63.06;100514.63;5095912;28;20739;-82
2023/10/11 03:05:26;;;;;;;6.67;3.47;;;;;;;17.60;62.39;100517.69;5095677;28;20240;-83
2023/10/11 03:08:13;;;;;;;5.77;3.03;;;;;;;17.64;62.08;100515.59;5095779;28;20233;-82
2023/10/11 03:10:43;;;;;;;6.10;3.90;;;;;;;17.71;61.76;100524.81;5082511;28;20210;-83
2023/10/11 03:13:12;;;;;;;6.40;3.47;;;;;;;17.79;61.25;100515.97;5095617;28;20203;-82
2023/10/11 03:15:39;;;;;;;6.57;3.27;;;;;;;17.81;61.15;100514.00;5088506;28;20202;-82
2023/10/11 03:18:07;;;;;;;7.07;3.63;;;;;;;17.89;60.76;100511.44;5095360;28;20230;-83
2023/10/11 03:20:36;;;;;;;6.47;3.57;;;;;;;17.89;60.80;100512.28;5088148;28;20299;-83
2023/10/11 03:23:10;;;;;;;6.40;3.43;;;;;;;17.94;61.38;100509.97;5086542;28;20226;-82
2023/10/11 03:25:38;;;;;;;7.23;3.50;;;;;;;17.94;61.24;100509.97;5089115;28;20236;-83
2023/10/11 03:28:05;;;;;;;6.20;3.47;;;;;;;18.01;60.87;100508.38;5091299;28;20222;-83
2023/10/11 03:30:35;;;;;;;5.27;3.37;;;;;;;18.01;60.85;100503.00;5089712;28;20200;-83
2023/10/11 05:07:46;;;;;;;6.87;4.07;;;;;;;17.20;68.32;100445.22;5061978;28;21169;-71
2023/10/11 05:10:30;;;;;;;6.93;3.93;;;;;;;17.18;68.73;100446.41;5054709;28;20236;-70
2023/10/11 05:13:05;;;;;;;5.93;3.80;;;;;;;17.15;69.09;100438.59;5058630;28;20727;-70
2023/10/11 05:15:42;;;;;;;5.97;4.10;;;;;;;17.14;69.19;100437.75;5057586;28;20572;-70
2023/10/11 05:18:18;;;;;;;6.10;3.90;;;;;;;17.11;69.34;100435.34;5051646;28;20286;-71
2023/10/11 05:21:03;;;;;;;6.63;3.90;;;;;;;17.10;68.91;100436.34;5056750;28;20374;-71
2023/10/11 05:23:52;;;;;;;8.03;4.17;;;;;;;17.08;69.54;100432.94;5052955;28;20249;-71
2023/10/11 05:29:09;;;;;;;7.00;3.60;;;;;;;17.07;69.20;100430.38;5054174;28;20205;-71
2023/10/11 05:31:44;;;;;;;5.80;3.70;;;;;;;17.08;69.20;100426.72;5055492;28;20209;-72
2023/10/11 05:50:54;;;;;;;6.03;3.37;;;;;;;17.26;67.05;100412.38;5055369;28;20214;-73
2023/10/11 05:53:21;;;;;;;6.43;3.00;;;;;;;17.28;67.11;100420.28;5058014;28;20281;-73
2023/10/11 05:55:51;;;;;;;8.30;3.83;;;;;;;17.32;66.70;100417.19;5060814;28;20210;-73
2023/10/11 05:58:19;;;;;;;8.57;4.00;;;;;;;17.38;66.07;100387.97;5060509;28;20733;-73
2023/10/11 06:00:49;;;;;;;13.37;3.77;;;;;;;17.42;65.94;100383.97;5062008;28;20249;-72
2023/10/11 06:03:16;;;;;;;7.03;4.27;;;;;;;17.45;65.71;100375.59;5056187;28;20215;-72
2023/10/11 06:05:42;;;;;;;7.43;3.27;;;;;;;17.51;65.45;100396.56;5060448;28;20232;-71
2023/10/11 06:08:15;;;;;;;5.83;3.23;;;;;;;17.56;64.68;100396.94;5061159;28;20629;-73
2023/10/11 06:10:42;;;;;;;8.33;3.30;;;;;;;17.62;64.18;100401.75;5056137;28;20213;-72
2023/10/11 06:13:14;;;;;;;6.10;2.60;;;;;;;17.64;63.77;100407.88;5058999;28;20207;-72
2023/10/11 06:15:45;;;;;;;8.33;3.77;;;;;;;17.66;64.09;100422.06;5057336;28;20284;-73
2023/10/11 06:18:36;;;;;;;7.77;3.33;;;;;;;17.69;63.75;100408.28;5050731;28;20226;-72
2023/10/11 06:21:05;;;;;;;7.73;3.23;;;;;;;17.72;63.84;100402.63;5045728;28;20211;-73
2023/10/11 06:23:33;;;;;;;8.57;3.27;;;;;;;17.74;63.82;100391.66;5044790;28;20289;-74
2023/10/11 06:26:20;;;;;;;7.17;3.50;;;;;;;17.77;63.41;100394.91;5047993;28;20227;-74
2023/10/11 06:28:48;;;;;;;9.37;3.90;;;;;;;17.78;63.76;100391.22;5044791;28;20315;-72
2023/10/11 06:31:16;;;;;;;7.00;3.70;;;;;;;17.80;63.32;100397.31;5041292;28;20218;-74
2023/10/11 06:33:45;;;;;;;6.93;3.00;;;;;;;17.82;63.81;100398.00;5041089;28;20214;-74
2023/10/11 06:36:14;;;;;;;8.93;3.90;;;;;;;17.88;63.33;100402.81;5050437;28;20241;-73
2023/10/11 06:38:42;;;;;;;6.80;3.33;;;;;;;17.90;63.55;100400.81;5043685;28;20742;-74
2023/10/11 06:43:51;;;;;;;6.27;3.23;;;;;;;17.88;63.79;100400.13;5046910;28;20217;-76
2023/10/11 06:46:17;;;;;;;7.43;4.07;;;;;;;17.88;64.07;100408.19;5044129;28;20315;-75
2023/10/11 06:48:43;;;;;;;8.00;4.23;;;;;;;17.87;63.93;100411.88;5048458;28;20319;-75
2023/10/11 06:51:13;;;;;;;9.50;4.23;;;;;;;17.88;64.10;100402.81;5040408;28;20208;-74
2023/10/11 06:53:42;;;;;;;12.50;4.37;;;;;;;17.90;64.17;100406.22;5043493;28;20207;-75
2023/10/11 06:56:16;;;;;;;9.37;4.30;;;;;;;17.93;63.99;100400.50;5042612;28;20201;-75
2023/10/11 06:58:44;;;;;;;11.03;4.03;;;;;;;17.93;64.01;100410.41;5076290;22;20262;-73
2023/10/11 07:01:13;;;;;;;14.20;4.57;;;;;;;17.96;63.58;100410.13;5051999;28;20263;-74
2023/10/11 07:03:40;;;;;;;10.73;4.20;;;;;;;18.01;62.94;100413.22;5042876;28;20204;-75
2023/10/11 07:06:11;;;;;;;9.10;4.43;;;;;;;18.03;63.26;100395.91;5052022;28;20224;-74
2023/10/11 07:08:48;;;;;;;16.43;5.53;;;;;;;18.13;62.55;100403.94;5050243;28;20235;-75
2023/10/11 07:11:36;;;;;;;24.43;8.00;;;;;;;18.14;62.69;100402.94;5051164;28;20542;-74
2023/10/11 07:14:05;;;;;;;6.83;3.57;;;;;;;18.17;62.40;100399.94;5056114;28;20214;-74
2023/10/11 07:16:37;;;;;;;6.33;3.37;;;;;;;18.17;62.27;100399.09;5056036;28;20204;-75
2023/10/11 07:19:03;;;;;;;5.90;3.73;;;;;;;18.23;62.39;100399.34;5058862;28;20596;-75
2023/10/11 07:21:52;;;;;;;7.77;3.97;;;;;;;18.26;62.60;100395.50;5053036;28;20215;-75
2023/10/11 07:24:33;;;;;;;5.20;3.10;;;;;;;18.27;61.93;100397.19;5052432;28;20674;-74
2023/10/11 07:27:07;;;;;;;4.63;2.70;;;;;;;18.28;61.93;100405.09;5056470;28;20239;-75
2023/10/11 07:29:35;;;;;;;10.03;3.70;;;;;;;18.31;61.23;100395.84;5047488;28;20478;-74
2023/10/11 07:32:03;;;;;;;5.90;3.20;;;;;;;18.33;61.38;100385.78;5047332;28;20205;-74
2023/10/11 07:34:31;;;;;;;7.60;3.30;;;;;;;18.35;60.78;100398.09;5050870;28;20212;-74
2023/10/11 07:36:58;;;;;;;8.30;4.23;;;;;;;18.37;61.44;100381.78;5049249;28;20225;-74
2023/10/11 07:39:26;;;;;;;7.30;3.83;;;;;;;18.44;60.15;100401.75;5054246;28;20201;-75
2023/10/11 07:42:00;;;;;;;7.17;3.23;;;;;;;18.46;60.83;100404.25;5048894;28;20455;-74
2023/10/11 07:44:28;;;;;;;7.63;3.47;;;;;;;18.51;59.90;100415.44;5054670;28;20210;-74
2023/10/11 07:46:55;;;;;;;6.37;3.43;;;;;;;18.59;59.61;100416.41;5048793;28;20319;-75
2023/10/11 07:49:23;;;;;;;6.50;3.50;;;;;;;18.64;59.22;100416.78;5054893;28;20345;-75
2023/10/11 07:51:52;;;;;;;6.53;3.97;;;;;;;18.68;59.07;100407.38;5048548;28;20211;-74
2023/10/11 07:54:20;;;;;;;5.70;3.67;;;;;;;18.72;59.55;100430.34;5052127;28;20201;-75
2023/10/11 07:56:47;;;;;;;5.93;3.37;;;;;;;18.82;58.38;100421.31;5058419;28;20205;-75
2023/10/11 07:59:13;;;;;;;5.33;3.40;;;;;;;18.87;58.19;100425.25;5050390;28;20235;-74
2023/10/11 08:01:43;;;;;;;8.43;3.77;;;;;;;18.98;58.25;100425.03;5056935;28;20212;-75
2023/10/11 08:04:10;;;;;;;8.10;3.67;;;;;;;19.06;57.55;100426.91;5048398;28;20230;-74
2023/10/11 08:06:40;;;;;;;8.93;3.70;;;;;;;19.15;57.29;100427.84;5058728;28;20250;-75
2023/10/11 08:09:07;;;;;;;9.07;3.60;;;;;;;19.20;56.92;100423.63;5052219;28;20582;-74
2023/10/11 08:11:44;;;;;;;5.80;3.87;;;;;;;19.35;56.31;100416.66;5051445;28;20229;-74
2023/10/11 08:14:15;;;;;;;5.50;3.10;;;;;;;19.42;56.00;100416.88;5043455;28;20217;-74
2023/10/11 08:16:42;;;;;;;9.97;3.43;;;;;;;19.51;56.33;100412.41;5056774;28;20293;-75
2023/10/11 08:19:11;;;;;;;6.67;3.30;;;;;;;19.58;55.30;100422.41;5054507;28;20235;-75
2023/10/11 08:21:39;;;;;;;5.07;3.43;;;;;;;19.62;55.73;100409.41;5056391;28;20211;-74
2023/10/11 08:24:15;;;;;;;5.83;3.90;;;;;;;19.70;55.45;100407.63;5056012;28;20214;-76
2023/10/11 08:26:44;;;;;;;7.97;3.13;;;;;;;19.73;55.17;100388.34;5052523;28;20774;-75
2023/10/11 08:29:17;;;;;;;7.03;3.60;;;;;;;19.84;54.08;100391.78;5046148;28;20231;-75
2023/10/11 08:31:44;;;;;;;4.23;2.80;;;;;;;19.91;54.58;100382.00;5045471;28;20299;-75
2023/10/11 08:34:14;;;;;;;8.23;3.40;;;;;;;19.96;54.30;100379.66;5044650;28;20234;-75
2023/10/11 08:36:43;;;;;;;4.95;2.65;;;;;;;20.03;53.96;100384.25;5045663;28;20205;-78
2023/10/11 08:39:13;;;;;;;6.43;3.00;;;;;;;20.06;53.66;100377.69;5050109;28;20260;-76
2023/10/11 08:41:43;;;;;;;7.70;3.20;;;;;;;20.16;53.38;100382.94;5052423;28;20215;-76
2023/10/11 08:44:15;;;;;;;6.30;3.57;;;;;;;20.21;53.21;100386.00;5048137;28;20208;-76
2023/10/11 08:46:46;;;;;;;8.67;3.10;;;;;;;20.30;53.44;100393.09;5049107;28;20611;-77
2023/10/11 08:49:14;;;;;;;6.07;3.00;;;;;;;20.35;53.08;100385.34;5050280;28;20255;-76
2023/10/11 08:51:42;;;;;;;5.90;3.00;;;;;;;20.43;52.84;100401.59;5052814;28;20207;-76
2023/10/11 08:54:12;;;;;;;6.82;3.13;;;;;;;20.54;52.97;100385.06;5043507;28;20205;-75
2023/10/11 08:56:39;;;;;;;11.77;3.90;;;;;;;20.56;52.42;100388.47;5048359;28;20203;-75
2023/10/11 08:59:06;;;;;;;7.05;3.13;;;;;;;20.62;52.31;100393.16;5044822;28;20251;-75
2023/10/11 09:01:36;;;;;;;6.28;2.92;;;;;;;20.70;52.43;100387.78;5049440;28;20271;-76
2023/10/11 09:04:11;;;;;;;5.20;3.22;;;;;;;20.75;52.59;100387.28;5046901;28;20258;-75
2023/10/11 09:06:41;;;;;;;7.85;3.28;;;;;;;20.78;51.94;100390.47;5051770;28;20212;-75
2023/10/11 09:09:14;;;;;;;6.45;3.22;;;;;;;20.85;52.37;100384.38;5048031;28;20220;-76
2023/10/11 09:11:53;;;;;;;6.75;2.88;;;;;;;20.92;52.05;100378.13;5048622;28;20240;-76
2023/10/11 09:14:22;;;;;;;5.10;3.22;;;;;;;20.96;51.77;100365.94;5048628;28;20205;-75
2023/10/11 09:16:49;;;;;;;5.28;3.20;;;;;;;21.00;51.31;100363.72;5051137;28;20284;-76
2023/10/11 09:19:19;;;;;;;5.55;3.28;;;;;;;20.99;51.04;100379.13;5051196;28;20221;-76
2023/10/11 09:22:00;;;;;;;5.15;2.70;;;;;;;21.00;51.42;100370.00;5050636;28;20201;-75
2023/10/11 09:24:37;;;;;;;8.63;2.90;;;;;;;21.02;51.88;100370.66;5051853;28;20410;-75
2023/10/11 09:27:18;;;;;;;4.80;2.45;;;;;;;21.07;50.97;100372.88;5051742;28;20228;-76
2023/10/11 09:29:46;;;;;;;6.38;3.33;;;;;;;21.07;51.87;100383.69;5041418;28;20205;-74
2023/10/11 09:32:19;;;;;;;4.90;2.92;;;;;;;21.10;50.83;100365.25;5046104;28;20225;-77
2023/10/11 09:34:46;;;;;;;5.43;2.90;;;;;;;21.14;51.04;100358.47;5047833;28;20269;-75
2023/10/11 09:37:12;;;;;;;5.40;2.85;;;;;;;21.15;51.22;100360.16;5046810;28;20202;-74
2023/10/11 09:39:41;;;;;;;5.03;2.78;;;;;;;21.17;50.92;100364.53;5047528;28;20204;-75
2023/10/11 09:42:11;;;;;;;5.60;2.90;;;;;;;21.19;51.63;100355.25;5045747;28;20216;-76
2023/10/11 09:44:39;;;;;;;5.05;2.92;;;;;;;21.24;50.99;100365.59;5050300;28;20289;-75
2023/10/11 09:47:08;;;;;;;5.75;2.60;;;;;;;21.27;51.75;100363.38;5043530;28;20233;-75
2023/10/11 09:49:41;;;;;;;3.83;2.47;;;;;;;21.29;50.95;100361.34;5053087;28;20196;-76
2023/10/11 09:52:09;;;;;;;3.70;2.80;;;;;;;21.27;51.32;100360.69;5045040;28;20223;-76
2023/10/11 09:54:38;;;;;;;7.93;3.15;;;;;;;21.28;51.34;100351.53;5052167;28;20206;-76
2023/10/11 09:57:15;;;;;;;5.60;3.20;;;;;;;21.27;51.26;100346.28;5055984;28;20710;-75
2023/10/11 09:59:48;;;;;;;7.28;3.20;;;;;;;21.27;51.63;100349.84;5054541;28;20212;-76
2023/10/11 10:02:22;;;;;;;5.95;2.60;;;;;;;21.26;51.72;100344.59;5051960;28;20209;-76
2023/10/11 10:04:55;;;;;;;6.82;3.10;;;;;;;21.24;51.93;100342.06;5050418;28;20209;-76
2023/10/11 10:07:25;;;;;;;7.57;3.10;;;;;;;21.23;51.67;100343.09;5054605;28;20238;-76
2023/10/11 10:09:54;;;;;;;5.50;3.40;;;;;;;21.20;52.04;100329.88;5051668;28;20312;-77
2023/10/11 10:12:22;;;;;;;5.93;2.70;;;;;;;21.15;52.00;100337.63;5049420;28;20256;-76
2023/10/11 10:15:01;;;;;;;5.85;2.90;;;;;;;21.12;52.32;100338.00;5048812;28;20205;-76
2023/10/11 10:17:28;;;;;;;4.70;2.55;;;;;;;21.16;52.66;100339.31;5055551;28;20224;-74
2023/10/11 10:20:00;;;;;;;6.38;3.00;;;;;;;21.18;52.56;100342.72;5051881;28;20201;-75
2023/10/11 10:22:31;;;;;;;7.90;3.05;;;;;;;21.23;52.40;100334.97;5048886;28;20236;-77
2023/10/11 10:25:18;;;;;;;6.50;2.85;;;;;;;21.29;52.85;100345.09;5053171;28;20201;-76
2023/10/11 10:27:46;;;;;;;5.13;2.78;;;;;;;21.38;52.79;100335.91;5047648;28;20267;-76
2023/10/11 10:30:21;;;;;;;6.72;2.88;;;;;;;21.42;53.07;100339.97;5053473;28;20198;-75
2023/10/11 10:33:19;;;;;;;4.60;2.97;;;;;;;21.53;52.96;100330.59;5051473;28;20204;-76
2023/10/11 10:35:45;;;;;;;7.15;3.25;;;;;;;21.62;52.90;100343.13;5049476;28;20213;-76
2023/10/11 10:38:12;;;;;;;6.22;2.80;;;;;;;21.66;53.24;100340.91;5052502;28;20303;-75
2023/10/11 10:40:37;;;;;;;5.22;3.20;;;;;;;21.73;53.15;100341.88;5054748;28;20202;-75
2023/10/11 10:43:23;;;;;;;4.90;3.10;;;;;;;21.77;53.28;100348.63;5053162;28;20605;-75
2023/10/11 10:45:51;;;;;;;7.75;2.97;;;;;;;21.82;53.14;100354.38;5054327;28;20259;-77
2023/10/11 10:48:20;;;;;;;6.25;3.42;;;;;;;21.90;52.42;100348.91;5053017;28;20236;-76
2023/10/11 10:50:50;;;;;;;7.68;3.03;;;;;;;21.97;53.33;100354.47;5051542;28;20275;-73
2023/10/11 10:53:17;;;;;;;4.70;2.80;;;;;;;22.03;52.74;100353.81;5057474;28;20725;-73
2023/10/11 10:55:42;;;;;;;5.80;2.92;;;;;;;22.06;52.67;100348.84;5051753;28;20215;-76
2023/10/11 10:58:15;;;;;;;6.03;2.83;;;;;;;22.13;52.71;100349.84;5050654;28;20225;-74
2023/10/11 11:00:43;;;;;;;4.22;2.92;;;;;;;22.20;51.93;100352.69;5053930;28;20275;-75
2023/10/11 11:03:23;;;;;;;5.07;3.25;;;;;;;22.25;52.15;100352.97;5054647;28;20259;-75
2023/10/11 11:05:56;;;;;;;5.90;3.58;;;;;;;22.29;51.88;100350.75;5051258;28;20224;-76
2023/10/11 11:08:28;;;;;;;5.80;3.35;;;;;;;22.34;51.93;100351.06;5050259;28;20225;-76
2023/10/11 11:10:59;;;;;;;5.28;2.95;;;;;;;22.38;51.65;100352.41;5058346;28;20205;-76
2023/10/11 11:13:29;;;;;;;5.68;3.10;;;;;;;22.47;51.68;100357.56;5056089;28;20703;-76
2023/10/11 11:15:56;;;;;;;7.55;2.38;;;;;;;22.49;50.62;100347.38;5053841;28;20209;-75
2023/10/11 11:18:33;;;;;;;9.55;3.40;;;;;;;22.55;51.36;100342.25;5055289;28;20216;-74
2023/10/11 11:21:03;;;;;;;4.65;2.63;;;;;;;22.59;50.86;100333.53;5048848;28;20240;-75
2023/10/11 11:23:33;;;;;;;7.78;3.30;;;;;;;22.68;51.34;100327.03;5050265;28;20233;-76
2023/10/11 11:26:04;;;;;;;5.53;2.80;;;;;;;22.75;50.61;100338.81;5055377;28;20241;-76
2023/10/11 11:28:39;;;;;;;6.80;3.38;;;;;;;22.74;50.18;100342.59;5058332;28;20233;-76
2023/10/11 11:31:10;;;;;;;8.02;2.95;;;;;;;22.80;50.06;100349.19;5050184;28;20646;-75
2023/10/11 11:33:36;;;;;;;7.88;3.88;;;;;;;22.81;49.74;100338.13;5047532;28;20527;-75
2023/10/11 11:36:10;;;;;;;4.25;3.03;;;;;;;22.82;49.14;100328.97;5047811;28;20205;-75
2023/10/11 11:38:37;;;;;;;4.97;2.78;;;;;;;22.90;49.37;100340.78;5049486;28;20227;-73
2023/10/11 11:41:14;;;;;;;12.27;3.22;;;;;;;22.93;49.56;100326.84;5056146;28;20194;-76
2023/10/11 11:43:40;;;;;;;5.97;2.92;;;;;;;23.00;49.24;100330.50;5048980;28;20735;-76
2023/10/11 11:46:09;;;;;;;11.07;3.47;;;;;;;23.04;49.27;100321.78;5045384;28;20315;-75
2023/10/11 11:48:41;;;;;;;6.70;3.22;;;;;;;23.01;49.33;100315.88;5051885;28;20673;-75
2023/10/11 11:51:13;;;;;;;12.27;3.22;;;;;;;23.04;49.60;100342.69;5045213;28;20211;-76
2023/10/11 11:53:43;;;;;;;8.25;3.10;;;;;;;23.07;49.46;100331.44;5050153;28;20200;-76
2023/10/11 11:56:11;;;;;;;7.20;2.70;;;;;;;23.07;49.89;100326.88;5051899;28;20722;-74
2023/10/11 11:58:37;;;;;;;5.35;3.13;;;;;;;23.10;49.83;100345.50;5046715;28;20235;-76
2023/10/11 12:01:15;;;;;;;9.68;3.15;;;;;;;23.15;49.94;100339.50;5054140;28;20676;-77
2023/10/11 12:03:42;;;;;;;5.55;2.92;;;;;;;23.17;49.28;100332.84;5053033;28;20304;-76
2023/10/11 12:06:22;;;;;;;5.50;3.22;;;;;;;23.19;49.54;100335.38;5041979;28;20201;-76
2023/10/11 12:08:48;;;;;;;8.85;3.42;;;;;;;23.16;49.56;100324.88;5046973;28;20282;-76
2023/10/11 12:11:15;;;;;;;7.63;3.00;;;;;;;23.18;49.18;100330.97;5043115;28;20205;-74
2023/10/11 12:13:42;;;;;;;9.82;2.92;;;;;;;23.18;49.54;100336.41;5047688;28;20306;-77
2023/10/11 12:16:09;;;;;;;8.13;2.97;;;;;;;23.18;50.05;100325.56;5044574;28;20236;-76
2023/10/11 12:18:35;;;;;;;8.52;3.30;;;;;;;23.19;50.02;100327.22;5054731;28;20224;-76
2023/10/11 12:21:10;;;;;;;9.25;3.17;;;;;;;23.24;49.73;100332.97;5046138;28;20213;-76
2023/10/11 12:23:37;;;;;;;6.45;3.40;;;;;;;23.26;49.70;100351.81;5048287;28;20621;-74
2023/10/11 12:26:04;;;;;;;7.57;3.35;;;;;;;23.24;49.80;100330.25;5046938;28;20216;-76
2023/10/11 12:28:37;;;;;;;5.32;2.83;;;;;;;23.24;50.06;100338.41;5049818;28;20233;-76
2023/10/11 12:31:04;;;;;;;9.65;2.85;;;;;;;23.23;50.18;100336.72;5051118;28;20208;-75
2023/10/11 12:33:32;;;;;;;7.38;3.10;;;;;;;23.29;50.76;100335.94;5040744;28;20209;-76
2023/10/11 12:35:58;;;;;;;6.13;2.88;;;;;;;23.27;50.47;100348.91;5048301;28;20254;-74
2023/10/11 12:38:26;;;;;;;6.20;2.38;;;;;;;23.28;50.21;100355.19;5045658;28;20229;-77
2023/10/11 12:40:53;;;;;;;6.95;2.60;;;;;;;23.29;50.67;100354.97;5046987;28;20517;-76
2023/10/11 12:43:22;;;;;;;6.20;3.30;;;;;;;23.31;51.91;100354.78;5055264;28;20660;-77
2023/10/11 12:45:49;;;;;;;8.82;3.22;;;;;;;23.37;52.25;100359.47;5042023;28;20202;-76
2023/10/11 12:48:15;;;;;;;6.65;2.88;;;;;;;23.40;51.34;100338.22;5048441;28;20467;-76
2023/10/11 12:50:42;;;;;;;7.13;3.22;;;;;;;23.38;51.27;100353.00;5052669;28;20215;-77
2023/10/11 12:53:12;;;;;;;10.48;3.63;;;;;;;23.37;51.65;100354.03;5053987;28;20212;-76
2023/10/11 12:55:42;;;;;;;7.85;3.25;;;;;;;23.38;51.43;100350.28;5052918;28;20591;-78
2023/10/11 12:58:11;;;;;;;7.10;3.33;;;;;;;23.34;51.54;100357.97;5046158;28;20278;-75
2023/10/11 13:00:47;;;;;;;7.32;3.22;;;;;;;23.26;51.81;100360.78;5049885;28;20212;-75
2023/10/11 13:03:18;;;;;;;8.55;3.70;;;;;;;23.20;52.17;100364.25;5042606;28;20207;-75
2023/10/11 13:05:46;;;;;;;6.40;3.15;;;;;;;23.20;52.01;100337.91;5047135;28;20215;-75
2023/10/11 13:08:14;;;;;;;6.85;3.25;;;;;;;23.19;52.14;100329.94;5047895;28;20228;-75
2023/10/11 13:10:46;;;;;;;5.15;2.83;;;;;;;23.16;52.35;100319.47;5053440;28;20310;-75
2023/10/11 13:13:14;;;;;;;6.68;2.78;;;;;;;23.14;51.46;100316.91;5044173;28;20201;-74
2023/10/11 13:15:45;;;;;;;8.63;3.03;;;;;;;23.15;52.57;100325.91;5045239;28;20259;-74
2023/10/11 13:18:11;;;;;;;9.45;3.92;;;;;;;23.08;52.29;100322.28;5043925;28;20313;-75
2023/10/11 13:20:38;;;;;;;7.47;3.30;;;;;;;23.07;52.72;100317.88;5046711;28;20274;-76
2023/10/11 13:23:06;;;;;;;6.60;3.28;;;;;;;23.11;53.02;100321.91;5043352;28;20207;-76
2023/10/11 13:25:33;;;;;;;8.70;3.30;;;;;;;23.12;53.39;100318.13;5045222;28;20952;-75
2023/10/11 13:28:03;;;;;;;7.75;2.85;;;;;;;23.16;53.09;100324.88;5049086;28;20704;-75
2023/10/11 13:30:36;;;;;;;8.60;3.42;;;;;;;23.16;52.43;100316.75;5057969;28;20217;-75
2023/10/11 13:33:05;;;;;;;8.52;3.28;;;;;;;23.16;52.61;100308.59;5048679;28;20300;-75
2023/10/11 13:35:35;;;;;;;5.70;3.10;;;;;;;23.14;52.89;100295.19;5052832;28;20216;-75